Aviation Digital Data Service (ADDS)

Output produced by METARs form (0417 UTC 19 February 2019)
found at http://www.aviationweather.gov/metar/data/
 
Forecast for: VTUK (KHON KAEN , TH)
Text: TAF VTUK 182300Z 1900/1924 VRB02KT 5000 BR NSC
Forecast period: 0000 to 0200 UTC 19 February 2019
Forecast type: FROM: standard forecast or significant change
Winds: variable direction winds at 2 MPH (2 knots; 1.0 m/s)
Visibility: 3 miles (5 km)
Ceiling: unknown
Clouds: missing
Weather: BR  (mist)
Text: BECMG 1902/1904 24004KT 9000 NSW
Forecast period: 0200 UTC 19 February 2019 to 0000 UTC 20 February 2019
Forecast type: BECOMING: Conditions expected to become as follows by 0400 UTC 19 February 2019
Winds: from the WSW (240 degrees) at 5 MPH (4 knots; 2.1 m/s)
Visibility: 6 miles (9 km)
Ceiling: unknown
Clouds: missing
Weather: NSW  (no significant weather)